Flight Track Log - Related Links

Times and Time Zones

All times are in EST time to prevent confusion due to time zone crossing. See the ASQ4293 flight status page for this flight to view local times or setup timezone preferences in your user account.

Time Position Orientation Groundspeed Altitude Reporting Facility
EST Latitude Longitude Course Direction KTS MPH feet Rate Location/Type
Fri 09:31:36 AM 39.7000 -86.3000 201° Southwest 157 181 1,400  Level Indianapolis TRACON
Fri 09:32:06 AM 39.6833 -86.3167 218° Southwest 165 190 2,400 1,786 Climbing Indianapolis TRACON
Fri 09:33:00 AM 39.6333 -86.3500 207° Southwest 218 251 3,900 2,000 Climbing Indianapolis TRACON
Fri 09:34:00 AM 39.4467 -86.4281 204° Southwest  Level FlightAware Approximate
Fri 09:34:18 AM 39.5544 -86.3956 204° Southwest 251 289 6,800  Level Indianapolis Center
Fri 09:35:00 AM 39.3568 -86.4794 204° Southwest  Level FlightAware Approximate
Fri 09:35:20 AM 39.4886 -86.4303 202° Southwest 258 297 10,000  Level Indianapolis Center
Fri 09:36:00 AM 39.2654 -86.5257 201° Southwest  Level FlightAware Approximate
Fri 09:36:22 AM 39.4267 -86.4633 202° Southwest 246 283 11,500  Level Indianapolis Center
Fri 09:37:24 AM 39.3353 -86.5119 202° Southwest 293 337 12,900 1,452 Climbing Indianapolis Center
Fri 09:38:26 AM 39.2547 -86.5542 202° Southwest 308 354 14,500 1,500 Climbing Indianapolis Center
Fri 09:39:28 AM 39.1719 -86.5981 202° Southwest 318 366 16,000 1,463 Climbing Indianapolis Center
Fri 09:40:29 AM 39.0933 -86.6422 204° Southwest 325 374 17,500 1,561 Climbing Indianapolis Center
Fri 09:41:31 AM 38.9947 -86.7019 205° Southwest 325 374 19,200 1,790 Climbing Indianapolis Center
Fri 09:42:33 AM 38.9128 -86.7514 205° Southwest 325 374 21,200 1,935 Climbing Indianapolis Center
Fri 09:43:35 AM 38.8350 -86.7981 205° Southwest 312 359 23,200 1,645 Climbing Indianapolis Center
Fri 09:44:37 AM 38.7592 -86.8453 206° Southwest 303 349 24,600 1,355 Climbing Indianapolis Center
Fri 09:45:39 AM 38.7053 -86.9217 228° Southwest 290 334 26,000 1,306 Climbing Indianapolis Center
Fri 09:46:41 AM 38.6494 -86.9994 227° Southwest 294 338 27,300 1,258 Climbing Indianapolis Center
Fri 09:47:43 AM 38.5967 -87.0750 228° Southwest 288 331 28,600 1,403 Climbing Indianapolis Center
Fri 09:48:45 AM 38.5336 -87.1633 228° Southwest 282 325 30,200 1,403 Climbing Indianapolis Center
Fri 09:49:47 AM 38.4828 -87.2350 228° Southwest 276 318 31,500 1,161 Climbing Indianapolis Center
Fri 09:50:49 AM 38.4328 -87.3053 228° Southwest 270 311 32,600 1,016 Climbing Indianapolis Center
Fri 09:51:51 AM 38.3825 -87.3758 228° Southwest 269 310 33,600 919 Climbing Indianapolis Center
Fri 09:52:53 AM 38.3322 -87.4456 227° Southwest 270 311 34,500 871 Climbing Indianapolis Center
Fri 09:53:55 AM 38.2825 -87.5156 228° Southwest 266 306 35,400 726 Climbing Indianapolis Center
Fri 09:54:57 AM 38.2228 -87.5986 228° Southwest 265 305 36,000 290 Climbing Indianapolis Center
Fri 09:55:59 AM 38.1711 -87.6697 227° Southwest 270 311 36,000  Level Indianapolis Center
Fri 09:57:01 AM 38.1161 -87.7464 228° Southwest 286 329 36,000  Level Indianapolis Center
Fri 09:58:03 AM 38.0567 -87.8272 227° Southwest 304 350 36,000  Level Indianapolis Center
Fri 09:59:05 AM 37.9953 -87.9125 228° Southwest 324 373 36,000  Level Indianapolis Center
Fri 10:00:07 AM 37.9317 -87.9992 227° Southwest 333 383 36,000  Level Indianapolis Center
Fri 10:01:09 AM 37.8692 -88.0864 228° Southwest 335 386 36,000  Level Indianapolis Center
Fri 10:02:11 AM 37.7936 -88.1892 227° Southwest 331 381 36,000  Level Indianapolis Center
Fri 10:03:13 AM 37.7300 -88.2747 227° Southwest 333 383 36,000  Level Indianapolis Center
Fri 10:04:15 AM 37.6661 -88.3608 227° Southwest 334 384 36,000  Level Indianapolis Center
Fri 10:05:17 AM 37.5936 -88.4389 220° Southwest 338 389 36,000  Level Indianapolis Center
Fri 10:06:19 AM 37.5172 -88.5139 218° Southwest 346 398 36,000  Level Indianapolis Center
Fri 10:07:21 AM 37.4428 -88.5908 219° Southwest 346 398 36,000  Level Indianapolis Center
Fri 10:08:23 AM 37.3667 -88.6678 219° Southwest 347 399 36,000  Level Indianapolis Center
Fri 10:09:25 AM 37.2742 -88.7589 218° Southwest 350 403 36,000  Level Indianapolis Center
Fri 10:10:27 AM 37.1986 -88.8369 219° Southwest 350 403 36,000  Level Indianapolis Center
Fri 10:11:29 AM 37.1200 -88.9144 218° Southwest 350 403 36,000  Level Indianapolis Center
Fri 10:12:31 AM 37.0425 -88.9917 219° Southwest 352 405 36,000  Level Indianapolis Center
Fri 10:14:02 AM 36.9331 -89.1011 219° Southwest 352 405 36,000  Level Memphis Center
Fri 10:15:04 AM 36.8561 -89.1781 219° Southwest 355 409 36,000  Level Memphis Center
Fri 10:16:06 AM 36.7628 -89.2706 218° Southwest 356 410 36,000  Level Memphis Center
Fri 10:17:08 AM 36.6864 -89.3464 219° Southwest 355 409 36,000  Level Memphis Center
Fri 10:18:10 AM 36.6083 -89.4225 218° Southwest 357 411 36,000  Level Memphis Center
Fri 10:19:13 AM 36.5314 -89.4989 219° Southwest 359 413 36,000  Level Memphis Center
Fri 10:20:15 AM 36.4542 -89.5758 219° Southwest 360 414 36,000  Level Memphis Center
Fri 10:21:17 AM 36.3600 -89.6667 218° Southwest 361 415 36,000  Level Memphis Center
Fri 10:22:19 AM 36.2814 -89.7425 218° Southwest 360 414 36,000  Level Memphis Center
Fri 10:23:21 AM 36.2028 -89.8183 218° Southwest 360 414 36,000  Level Memphis Center
Fri 10:24:23 AM 36.1233 -89.8950 218° Southwest 361 415 36,000  Level Memphis Center
Fri 10:25:25 AM 36.0453 -89.9708 218° Southwest 359 413 36,000  Level Memphis Center
Fri 10:26:27 AM 35.9500 -90.0631 218° Southwest 362 417 36,000  Level Memphis Center
Fri 10:27:29 AM 35.8706 -90.1403 218° Southwest 363 418 36,000  Level Memphis Center
Fri 10:28:31 AM 35.7889 -90.2172 217° Southwest 367 422 36,000  Level Memphis Center
Fri 10:29:33 AM 35.7092 -90.2939 218° Southwest 365 420 36,000  Level Memphis Center
Fri 10:30:35 AM 35.6225 -90.3764 218° Southwest 364 419 36,000  Level Memphis Center
Fri 10:31:37 AM 35.5417 -90.4528 218° Southwest 364 419 36,000  Level Memphis Center
Fri 10:32:39 AM 35.4606 -90.5297 218° Southwest 366 421 36,000  Level Memphis Center
Fri 10:33:41 AM 35.3783 -90.6069 217° Southwest 368 423 36,000  Level Memphis Center
Fri 10:34:43 AM 35.2964 -90.6850 218° Southwest 370 426 36,000  Level Memphis Center
Fri 10:35:45 AM 35.1983 -90.7753 217° Southwest 374 430 36,000  Level Memphis Center
Fri 10:36:47 AM 35.1161 -90.8536 218° Southwest 373 429 36,000  Level Memphis Center
Fri 10:37:49 AM 35.0328 -90.9322 218° Southwest 375 432 36,000  Level Memphis Center
Fri 10:38:51 AM 34.9483 -91.0100 217° Southwest 376 433 36,000  Level Memphis Center
Fri 10:39:53 AM 34.8639 -91.0883 217° Southwest 378 435 36,000  Level Memphis Center
Fri 10:40:55 AM 34.7806 -91.1661 217° Southwest 377 434 36,000  Level Memphis Center
Fri 10:41:57 AM 34.6819 -91.2575 217° Southwest 378 435 36,000  Level Memphis Center
Fri 10:42:59 AM 34.5964 -91.3350 217° Southwest 379 436 36,000  Level Memphis Center
Fri 10:44:01 AM 34.5108 -91.4142 217° Southwest 381 438 36,000  Level Memphis Center
Fri 10:45:03 AM 34.4253 -91.4925 217° Southwest 383 441 36,000  Level Memphis Center
Fri 10:46:05 AM 34.3392 -91.5706 217° Southwest 384 442 36,000  Level Memphis Center
Fri 10:47:08 AM 34.2531 -91.6494 217° Southwest 383 441 36,000  Level Memphis Center
Fri 10:48:10 AM 34.1600 -91.7333 217° Southwest 383 441 36,000  Level Memphis Center
Fri 10:49:12 AM 34.0747 -91.8119 217° Southwest 384 442 36,000  Level Memphis Center
Fri 10:50:14 AM 33.9886 -91.8889 217° Southwest 386 444 36,000  Level Memphis Center
Fri 10:51:16 AM 33.9036 -91.9678 218° Southwest 385 443 36,000  Level Memphis Center
Fri 10:52:18 AM 33.8167 -92.0436 216° Southwest 385 443 36,000  Level Memphis Center
Fri 10:53:20 AM 33.7142 -92.1364 217° Southwest 385 443 36,000  Level Memphis Center
Fri 10:55:24 AM 33.5417 -92.2908 217° Southwest 386 444 36,000  Level Memphis Center
Fri 10:56:26 AM 33.4536 -92.3694 217° Southwest 390 449 36,000  Level Memphis Center
Fri 10:57:26 AM 33.3436 -92.4253 203° Southwest 404 465 36,000  Level Fort Worth Center
Fri 10:58:28 AM 33.2289 -92.4461 189° South 415 478 36,000  Level Fort Worth Center
Fri 10:59:30 AM 33.1139 -92.4672 189° South 417 480 36,000  Level Fort Worth Center
Fri 11:00:32 AM 32.9981 -92.4883 189° South 420 483 36,000  Level Fort Worth Center
Fri 11:01:34 AM 32.8839 -92.5139 191° South 418 481 36,000  Level Fort Worth Center
Fri 11:02:36 AM 32.7694 -92.5350 189° South 416 479 36,000  Level Fort Worth Center
Fri 11:03:38 AM 32.6297 -92.5592 188° South 420 483 36,000  Level Fort Worth Center
Fri 11:04:40 AM 32.5133 -92.5789 188° South 422 486 36,000  Level Fort Worth Center
Fri 11:05:42 AM 32.3978 -92.6011 189° South 421 484 36,000  Level Fort Worth Center
Fri 11:06:44 AM 32.2828 -92.6219 189° South 419 482 36,000  Level Fort Worth Center
Fri 11:07:47 AM 32.1653 -92.6422 188° South 424 488 36,000  Level Fort Worth Center
Fri 11:08:49 AM 32.0486 -92.6625 188° South 424 488 36,000  Level Fort Worth Center
Fri 11:09:51 AM 31.9250 -92.7244 203° Southwest 411 473 36,000  Level Fort Worth Center
Fri 11:10:53 AM 31.8389 -92.8086 220° Southwest 406 467 36,000  Level Fort Worth Center
Fri 11:11:55 AM 31.7525 -92.8911 219° Southwest 404 465 36,000  Level Fort Worth Center
Fri 11:12:57 AM 31.6667 -92.9747 220° Southwest 403 464 36,000  Level Fort Worth Center
Fri 11:13:59 AM 31.5619 -93.0761 220° Southwest 408 470 36,000  Level Fort Worth Center
Fri 11:15:01 AM 31.4733 -93.1600 219° Southwest 411 473 36,000  Level Fort Worth Center
Fri 11:16:03 AM 31.3861 -93.2439 219° Southwest 410 472 36,000  Level Fort Worth Center
Fri 11:17:06 AM 31.2992 -93.3278 220° Southwest 408 470 36,000  Level Fort Worth Center
Fri 11:18:08 AM 31.2106 -93.4106 219° Southwest 409 471 36,000 -726 Level Fort Worth Center
Fri 11:19:10 AM 31.1042 -93.5111 219° Southwest 410 472 34,500 -1,839 Descending Fort Worth Center
Fri 11:20:12 AM 31.0183 -93.5925 219° Southwest 403 464 32,200 -2,146 Descending Fort Worth Center
Fri 11:21:27 AM 30.9169 -93.6878 219° Southwest 399 459 29,600 -2,130 Descending Houston Center
Fri 11:22:30 AM 30.8275 -93.7719 219° Southwest 409 471 27,300 -2,352 Descending Houston Center
Fri 11:23:32 AM 30.7167 -93.8778 219° Southwest 428 493 24,700 -2,323 Descending Houston Center
Fri 11:24:34 AM 30.6289 -93.9597 219° Southwest 412 474 22,500 -2,177 Descending Houston Center
Fri 11:25:36 AM 30.5442 -94.0397 219° Southwest 397 457 20,200 -2,214 Descending Houston Center
Fri 11:26:17 AM 30.4825 -94.0967 219° Southwest 392 451 18,700 -2,129 Descending Houston Center
Fri 11:26:38 AM 30.4608 -94.1169 219° Southwest 390 449 18,000 -2,226 Descending Houston Center
Fri 11:27:19 AM 30.3961 -94.1761 218° Southwest 376 433 16,400 -1,935 Descending Houston Center
Fri 11:27:40 AM 30.3803 -94.1925 222° Southwest 377 434 16,000 -2,100 Descending Houston Center
Fri 11:28:19 AM 30.3083 -94.2242 201° Southwest 334 384 14,300 -2,381 Descending Houston Center
Fri 11:28:43 AM 30.2761 -94.2339 195° South 339 390 13,500 -1,839 Descending Houston Center
Fri 11:29:21 AM 30.2394 -94.2914 234° Southwest 326 375 12,400 -1,452 Descending Houston Center
Fri 11:29:45 AM 30.2242 -94.3197 238° Southwest 325 374 12,000 -393 Descending Houston Center
Fri 11:30:22 AM 30.1911 -94.3775 237° Southwest 319 367 12,000 -387 Level Houston Center
Fri 11:30:47 AM 30.1794 -94.4075 246° West 320 368 11,600 -984 Descending Houston Center
Fri 11:31:23 AM 30.1564 -94.4717 247° West 306 352 11,000 -871 Descending Houston Center
Fri 11:31:49 AM 30.1503 -94.4931 252° West 304 350 10,700 -1,065 Descending Houston Center
Fri 11:32:25 AM 30.1247 -94.5578 245° Southwest 271 312 9,900 -1,161 Descending Houston Center
Fri 11:32:51 AM 30.1150 -94.5903 251° West 279 321 9,500 -984 Descending Houston Center
Fri 11:33:26 AM 30.0994 -94.6433 251° West 280 322 8,900 -1,065 Descending Houston Center
Fri 11:33:53 AM 30.0900 -94.6753 251° West 280 322 8,400 -885 Descending Houston Center
Fri 11:34:27 AM 30.0736 -94.7239 249° West 269 310 8,000 -667 Descending Houston Center
Fri 11:34:56 AM 30.0661 -94.7556 255° West 269 310 7,700 -984 Descending Houston Center
Fri 11:35:28 AM 30.0497 -94.8042 249° West 264 304 7,000 -1,065 Descending Houston Center
Fri 11:35:58 AM 30.0425 -94.8344 255° West 263 303 6,600 -1,179 Descending Houston Center
Fri 11:36:24 AM 30.0294 -94.8767 250° West 256 295 5,900 -1,065 Descending Houston Center
Fri 11:37:00 AM 30.0214 -94.9117 255° West 256 295 5,500 -787 Descending Houston Center
Fri 11:37:25 AM 30.0094 -94.9542 252° West 220 253 5,100 -484 Descending Houston Center
Fri 11:38:02 AM 29.9992 -94.9914 252° West 226 260 5,000 -98 Descending Houston Center
Fri 11:38:26 AM 29.9922 -95.0167 252° West 209 241 5,000 -290 Level Houston Center
Fri 11:39:04 AM 29.9925 -95.0553 270° West 208 239 4,700 -689 Descending Houston Center
Fri 11:39:27 AM 29.9944 -95.0839 274° West 205 236 4,300 -968 Descending Houston Center
Fri 11:40:06 AM 29.9922 -95.1189 266° West 202 232 3,700 -1,082 Descending Houston Center
Fri 11:40:28 AM 29.9919 -95.1469 269° West 191 220 3,200 -952 Descending Houston Center
Fri 11:41:09 AM 29.9928 -95.1778 272° West 195 224 2,700 -885 Descending Houston Center
Fri 11:41:29 AM 29.9928 -95.2022 270° West 160 184 2,300 -871 Descending Houston Center
Fri 11:42:11 AM 29.9933 -95.2303 271° West 180 207 1,800 -871 Descending Houston Center
Fri 11:42:31 AM 29.9936 -95.2553 271° West 161 185 1,400 -968 Descending Houston Center
Fri 11:43:13 AM 29.9925 -95.2881 268° West 164 189 800 -787 Descending Houston Center
Fri 11:43:32 AM 29.9936 -95.3036 275° West 144 166 600 -387 Descending Houston Center
Fri 11:44:15 AM 29.9922 -95.3278 266° West 154 177 400 -279 Descending Houston Center

Login

Don't have an account? Register now (free) for customized features, flight alerts, and more!